sensor_id;sensor_type;location;lat;lon;timestamp;temperature;humidity
68912;SHT31;55953;51.650;-0.522;2022-07-18T00:01:56;19.77;51.62
68912;SHT31;55953;51.650;-0.522;2022-07-18T00:04:26;19.69;51.72
68912;SHT31;55953;51.650;-0.522;2022-07-18T00:06:55;19.68;51.92
68912;SHT31;55953;51.650;-0.522;2022-07-18T00:09:24;19.71;51.78
68912;SHT31;55953;51.650;-0.522;2022-07-18T00:11:56;19.75;51.86
68912;SHT31;55953;51.650;-0.522;2022-07-18T00:14:24;19.71;51.95
68912;SHT31;55953;51.650;-0.522;2022-07-18T00:16:51;19.73;51.86
68912;SHT31;55953;51.650;-0.522;2022-07-18T00:19:19;19.65;51.99
68912;SHT31;55953;51.650;-0.522;2022-07-18T00:21:47;19.61;52.46
68912;SHT31;55953;51.650;-0.522;2022-07-18T00:24:15;19.60;53.00
68912;SHT31;55953;51.650;-0.522;2022-07-18T00:26:43;19.49;53.60
68912;SHT31;55953;51.650;-0.522;2022-07-18T00:29:11;19.42;53.98
68912;SHT31;55953;51.650;-0.522;2022-07-18T00:31:39;19.32;54.01
68912;SHT31;55953;51.650;-0.522;2022-07-18T00:34:07;19.32;54.05
68912;SHT31;55953;51.650;-0.522;2022-07-18T00:36:34;19.24;54.57
68912;SHT31;55953;51.650;-0.522;2022-07-18T00:39:03;19.19;54.35
68912;SHT31;55953;51.650;-0.522;2022-07-18T00:41:31;19.16;54.70
68912;SHT31;55953;51.650;-0.522;2022-07-18T00:43:59;19.12;55.27
68912;SHT31;55953;51.650;-0.522;2022-07-18T00:46:27;19.09;55.26
68912;SHT31;55953;51.650;-0.522;2022-07-18T00:48:57;19.11;55.30
68912;SHT31;55953;51.650;-0.522;2022-07-18T00:51:24;19.09;55.60
68912;SHT31;55953;51.650;-0.522;2022-07-18T00:53:52;19.01;55.65
68912;SHT31;55953;51.650;-0.522;2022-07-18T00:56:20;18.84;56.02
68912;SHT31;55953;51.650;-0.522;2022-07-18T00:58:49;18.68;55.83
68912;SHT31;55953;51.650;-0.522;2022-07-18T01:01:17;18.70;55.91
68912;SHT31;55953;51.650;-0.522;2022-07-18T01:04:03;18.61;56.36
68912;SHT31;55953;51.650;-0.522;2022-07-18T01:06:31;18.61;55.81
68912;SHT31;55953;51.650;-0.522;2022-07-18T01:09:00;18.56;56.52
68912;SHT31;55953;51.650;-0.522;2022-07-18T01:11:27;18.48;56.18
68912;SHT31;55953;51.650;-0.522;2022-07-18T01:13:55;18.46;56.79
68912;SHT31;55953;51.650;-0.522;2022-07-18T01:16:24;18.44;56.58
68912;SHT31;55953;51.650;-0.522;2022-07-18T01:18:52;18.47;56.63
68912;SHT31;55953;51.650;-0.522;2022-07-18T01:21:20;18.43;57.24
68912;SHT31;55953;51.650;-0.522;2022-07-18T01:23:47;18.34;57.19
68912;SHT31;55953;51.650;-0.522;2022-07-18T01:26:16;18.25;58.21
68912;SHT31;55953;51.650;-0.522;2022-07-18T01:28:47;18.17;58.13
68912;SHT31;55953;51.650;-0.522;2022-07-18T01:31:15;18.17;58.21
68912;SHT31;55953;51.650;-0.522;2022-07-18T01:33:43;18.14;58.00
68912;SHT31;55953;51.650;-0.522;2022-07-18T01:36:11;18.10;58.28
68912;SHT31;55953;51.650;-0.522;2022-07-18T01:38:39;18.08;58.46
68912;SHT31;55953;51.650;-0.522;2022-07-18T01:41:07;18.05;58.57
68912;SHT31;55953;51.650;-0.522;2022-07-18T01:43:39;17.98;59.01
68912;SHT31;55953;51.650;-0.522;2022-07-18T01:46:09;18.00;58.62
68912;SHT31;55953;51.650;-0.522;2022-07-18T01:48:39;17.95;58.99
68912;SHT31;55953;51.650;-0.522;2022-07-18T01:51:08;17.82;59.57
68912;SHT31;55953;51.650;-0.522;2022-07-18T01:53:39;17.77;59.68
68912;SHT31;55953;51.650;-0.522;2022-07-18T01:56:11;17.71;60.33
68912;SHT31;55953;51.650;-0.522;2022-07-18T01:58:40;17.59;60.14
68912;SHT31;55953;51.650;-0.522;2022-07-18T02:01:08;17.55;60.20
68912;SHT31;55953;51.650;-0.522;2022-07-18T02:03:35;17.48;59.83
68912;SHT31;55953;51.650;-0.522;2022-07-18T02:06:03;17.44;59.83
68912;SHT31;55953;51.650;-0.522;2022-07-18T02:08:31;17.40;60.14
68912;SHT31;55953;51.650;-0.522;2022-07-18T02:10:59;17.37;60.34
68912;SHT31;55953;51.650;-0.522;2022-07-18T02:13:27;17.27;61.03
68912;SHT31;55953;51.650;-0.522;2022-07-18T02:15:55;17.19;61.29
68912;SHT31;55953;51.650;-0.522;2022-07-18T02:18:23;17.17;61.67
68912;SHT31;55953;51.650;-0.522;2022-07-18T02:20:50;17.14;61.83
68912;SHT31;55953;51.650;-0.522;2022-07-18T02:23:18;17.14;62.28
68912;SHT31;55953;51.650;-0.522;2022-07-18T02:25:46;17.17;62.12
68912;SHT31;55953;51.650;-0.522;2022-07-18T02:28:14;17.23;61.87
68912;SHT31;55953;51.650;-0.522;2022-07-18T02:30:42;17.29;61.91
68912;SHT31;55953;51.650;-0.522;2022-07-18T02:33:10;17.24;62.13
68912;SHT31;55953;51.650;-0.522;2022-07-18T02:35:39;17.19;62.03
68912;SHT31;55953;51.650;-0.522;2022-07-18T02:38:07;17.15;62.47
68912;SHT31;55953;51.650;-0.522;2022-07-18T02:40:36;17.04;62.73
68912;SHT31;55953;51.650;-0.522;2022-07-18T02:43:04;17.01;63.03
68912;SHT31;55953;51.650;-0.522;2022-07-18T02:45:31;17.03;62.80
68912;SHT31;55953;51.650;-0.522;2022-07-18T02:47:59;17.05;62.86
68912;SHT31;55953;51.650;-0.522;2022-07-18T02:50:28;17.00;62.97
68912;SHT31;55953;51.650;-0.522;2022-07-18T02:52:56;17.04;62.63
68912;SHT31;55953;51.650;-0.522;2022-07-18T02:55:24;17.06;62.68
68912;SHT31;55953;51.650;-0.522;2022-07-18T02:57:52;17.00;62.80
68912;SHT31;55953;51.650;-0.522;2022-07-18T03:00:19;16.94;62.97
68912;SHT31;55953;51.650;-0.522;2022-07-18T03:02:47;16.91;63.32
68912;SHT31;55953;51.650;-0.522;2022-07-18T03:05:15;16.88;63.83
68912;SHT31;55953;51.650;-0.522;2022-07-18T03:07:43;16.85;63.92
68912;SHT31;55953;51.650;-0.522;2022-07-18T03:10:11;16.82;63.64
68912;SHT31;55953;51.650;-0.522;2022-07-18T03:12:40;16.81;63.68
68912;SHT31;55953;51.650;-0.522;2022-07-18T03:15:09;16.78;63.93
68912;SHT31;55953;51.650;-0.522;2022-07-18T03:17:37;16.76;63.99
68912;SHT31;55953;51.650;-0.522;2022-07-18T03:20:05;16.75;63.98
68912;SHT31;55953;51.650;-0.522;2022-07-18T03:22:34;16.77;63.73
68912;SHT31;55953;51.650;-0.522;2022-07-18T03:25:02;16.80;64.18
68912;SHT31;55953;51.650;-0.522;2022-07-18T03:27:31;16.74;64.25
68912;SHT31;55953;51.650;-0.522;2022-07-18T03:29:59;16.81;63.83
68912;SHT31;55953;51.650;-0.522;2022-07-18T03:32:26;16.84;63.78
68912;SHT31;55953;51.650;-0.522;2022-07-18T03:34:54;16.88;63.84
68912;SHT31;55953;51.650;-0.522;2022-07-18T03:37:22;16.88;63.96
68912;SHT31;55953;51.650;-0.522;2022-07-18T03:39:50;16.83;64.21
68912;SHT31;55953;51.650;-0.522;2022-07-18T03:42:17;16.75;64.40
68912;SHT31;55953;51.650;-0.522;2022-07-18T03:44:45;16.79;64.37
68912;SHT31;55953;51.650;-0.522;2022-07-18T03:47:13;16.78;64.46
68912;SHT31;55953;51.650;-0.522;2022-07-18T03:49:41;16.73;65.01
68912;SHT31;55953;51.650;-0.522;2022-07-18T03:52:09;16.67;65.41
68912;SHT31;55953;51.650;-0.522;2022-07-18T03:54:36;16.63;65.55
68912;SHT31;55953;51.650;-0.522;2022-07-18T03:57:04;16.67;65.07
68912;SHT31;55953;51.650;-0.522;2022-07-18T03:59:32;16.67;64.96
68912;SHT31;55953;51.650;-0.522;2022-07-18T04:02:01;16.64;64.99
68912;SHT31;55953;51.650;-0.522;2022-07-18T04:04:29;16.57;65.42
68912;SHT31;55953;51.650;-0.522;2022-07-18T04:06:56;16.48;65.70
68912;SHT31;55953;51.650;-0.522;2022-07-18T04:09:26;16.56;65.45
68912;SHT31;55953;51.650;-0.522;2022-07-18T04:11:55;16.75;64.76
68912;SHT31;55953;51.650;-0.522;2022-07-18T04:14:23;16.69;64.60
68912;SHT31;55953;51.650;-0.522;2022-07-18T04:16:50;16.57;65.47
68912;SHT31;55953;51.650;-0.522;2022-07-18T04:19:18;16.56;65.18
68912;SHT31;55953;51.650;-0.522;2022-07-18T04:21:46;16.57;64.92
68912;SHT31;55953;51.650;-0.522;2022-07-18T04:24:14;16.57;64.37
68912;SHT31;55953;51.650;-0.522;2022-07-18T04:40:25;17.54;63.43
68912;SHT31;55953;51.650;-0.522;2022-07-18T04:42:54;17.48;63.62
68912;SHT31;55953;51.650;-0.522;2022-07-18T04:45:22;17.48;63.50
68912;SHT31;55953;51.650;-0.522;2022-07-18T04:47:51;17.47;64.00
68912;SHT31;55953;51.650;-0.522;2022-07-18T04:50:22;17.46;64.08
68912;SHT31;55953;51.650;-0.522;2022-07-18T04:52:52;17.47;64.05
68912;SHT31;55953;51.650;-0.522;2022-07-18T05:08:26;18.11;61.75
68912;SHT31;55953;51.650;-0.522;2022-07-18T05:10:55;18.16;61.87
68912;SHT31;55953;51.650;-0.522;2022-07-18T05:13:23;18.12;62.14
68912;SHT31;55953;51.650;-0.522;2022-07-18T05:15:51;18.10;62.32
68912;SHT31;55953;51.650;-0.522;2022-07-18T05:18:20;18.19;62.12
68912;SHT31;55953;51.650;-0.522;2022-07-18T05:20:48;18.19;61.87
68912;SHT31;55953;51.650;-0.522;2022-07-18T05:23:16;18.15;61.78
68912;SHT31;55953;51.650;-0.522;2022-07-18T05:25:44;18.24;61.29
68912;SHT31;55953;51.650;-0.522;2022-07-18T05:28:12;18.32;60.98
68912;SHT31;55953;51.650;-0.522;2022-07-18T05:30:40;18.33;61.26
68912;SHT31;55953;51.650;-0.522;2022-07-18T05:33:08;18.36;61.78
68912;SHT31;55953;51.650;-0.522;2022-07-18T05:35:36;18.36;61.73
68912;SHT31;55953;51.650;-0.522;2022-07-18T05:38:04;18.41;61.81
68912;SHT31;55953;51.650;-0.522;2022-07-18T05:40:32;18.47;61.97
68912;SHT31;55953;51.650;-0.522;2022-07-18T05:43:00;18.50;62.23
68912;SHT31;55953;51.650;-0.522;2022-07-18T05:45:28;18.50;62.19
68912;SHT31;55953;51.650;-0.522;2022-07-18T05:47:57;18.50;62.22
68912;SHT31;55953;51.650;-0.522;2022-07-18T05:50:24;18.49;62.32
68912;SHT31;55953;51.650;-0.522;2022-07-18T05:52:52;18.49;62.60
68912;SHT31;55953;51.650;-0.522;2022-07-18T05:55:20;18.47;63.20
68912;SHT31;55953;51.650;-0.522;2022-07-18T05:57:48;18.44;63.21
68912;SHT31;55953;51.650;-0.522;2022-07-18T06:00:17;18.53;62.69
68912;SHT31;55953;51.650;-0.522;2022-07-18T06:02:49;18.65;62.25
68912;SHT31;55953;51.650;-0.522;2022-07-18T06:05:18;18.80;62.42
68912;SHT31;55953;51.650;-0.522;2022-07-18T06:07:51;18.95;61.92
68912;SHT31;55953;51.650;-0.522;2022-07-18T06:10:22;19.13;61.84
68912;SHT31;55953;51.650;-0.522;2022-07-18T06:12:52;19.26;61.53
68912;SHT31;55953;51.650;-0.522;2022-07-18T06:15:22;19.37;61.58
68912;SHT31;55953;51.650;-0.522;2022-07-18T06:17:50;19.54;61.33
68912;SHT31;55953;51.650;-0.522;2022-07-18T06:20:19;19.59;61.20
68912;SHT31;55953;51.650;-0.522;2022-07-18T06:22:47;19.69;61.31
68912;SHT31;55953;51.650;-0.522;2022-07-18T06:25:15;19.84;61.03
68912;SHT31;55953;51.650;-0.522;2022-07-18T06:27:43;20.02;60.68
68912;SHT31;55953;51.650;-0.522;2022-07-18T06:46:23;21.34;57.97
68912;SHT31;55953;51.650;-0.522;2022-07-18T06:48:52;21.37;57.83
68912;SHT31;55953;51.650;-0.522;2022-07-18T06:51:19;21.35;57.77
68912;SHT31;55953;51.650;-0.522;2022-07-18T06:53:47;21.38;57.78
68912;SHT31;55953;51.650;-0.522;2022-07-18T06:56:15;21.46;57.69
68912;SHT31;55953;51.650;-0.522;2022-07-18T06:58:42;21.51;57.39
68912;SHT31;55953;51.650;-0.522;2022-07-18T07:01:18;21.51;57.99
68912;SHT31;55953;51.650;-0.522;2022-07-18T07:03:48;21.49;57.17
68912;SHT31;55953;51.650;-0.522;2022-07-18T07:06:16;21.55;56.68
68912;SHT31;55953;51.650;-0.522;2022-07-18T07:08:44;21.62;56.23
68912;SHT31;55953;51.650;-0.522;2022-07-18T07:11:12;21.65;55.49
68912;SHT31;55953;51.650;-0.522;2022-07-18T07:13:40;21.69;55.77
68912;SHT31;55953;51.650;-0.522;2022-07-18T07:16:08;21.75;55.60
68912;SHT31;55953;51.650;-0.522;2022-07-18T07:18:36;21.85;54.98
68912;SHT31;55953;51.650;-0.522;2022-07-18T07:21:05;21.96;54.46
68912;SHT31;55953;51.650;-0.522;2022-07-18T07:23:33;22.05;54.40
68912;SHT31;55953;51.650;-0.522;2022-07-18T07:26:01;22.17;54.01
68912;SHT31;55953;51.650;-0.522;2022-07-18T07:28:29;22.29;53.76
68912;SHT31;55953;51.650;-0.522;2022-07-18T07:30:56;22.47;53.57
68912;SHT31;55953;51.650;-0.522;2022-07-18T07:33:24;22.65;53.00
68912;SHT31;55953;51.650;-0.522;2022-07-18T07:35:52;22.81;52.12
68912;SHT31;55953;51.650;-0.522;2022-07-18T07:38:20;22.96;51.90
68912;SHT31;55953;51.650;-0.522;2022-07-18T07:40:50;23.13;51.56
68912;SHT31;55953;51.650;-0.522;2022-07-18T07:43:19;23.31;50.67
68912;SHT31;55953;51.650;-0.522;2022-07-18T07:45:48;23.43;49.97
68912;SHT31;55953;51.650;-0.522;2022-07-18T07:48:18;23.55;50.23
68912;SHT31;55953;51.650;-0.522;2022-07-18T07:50:46;23.77;50.37
68912;SHT31;55953;51.650;-0.522;2022-07-18T07:53:14;23.98;49.81
68912;SHT31;55953;51.650;-0.522;2022-07-18T07:55:42;24.17;49.82
68912;SHT31;55953;51.650;-0.522;2022-07-18T07:58:09;24.30;49.66
68912;SHT31;55953;51.650;-0.522;2022-07-18T08:00:39;24.45;48.77
68912;SHT31;55953;51.650;-0.522;2022-07-18T08:03:07;24.58;48.36
68912;SHT31;55953;51.650;-0.522;2022-07-18T08:05:37;24.65;47.69
68912;SHT31;55953;51.650;-0.522;2022-07-18T08:08:15;24.76;47.73
68912;SHT31;55953;51.650;-0.522;2022-07-18T08:10:45;24.91;47.50
68912;SHT31;55953;51.650;-0.522;2022-07-18T08:13:14;25.04;46.96
68912;SHT31;55953;51.650;-0.522;2022-07-18T08:15:42;25.20;46.50
68912;SHT31;55953;51.650;-0.522;2022-07-18T08:18:10;25.43;46.00
68912;SHT31;55953;51.650;-0.522;2022-07-18T08:20:38;25.67;46.09
68912;SHT31;55953;51.650;-0.522;2022-07-18T08:23:07;25.93;45.66
68912;SHT31;55953;51.650;-0.522;2022-07-18T08:25:38;26.15;45.03
68912;SHT31;55953;51.650;-0.522;2022-07-18T08:28:10;26.37;44.81
68912;SHT31;55953;51.650;-0.522;2022-07-18T08:30:39;26.66;44.67
68912;SHT31;55953;51.650;-0.522;2022-07-18T08:33:07;26.88;43.85
68912;SHT31;55953;51.650;-0.522;2022-07-18T08:35:36;27.15;43.17
68912;SHT31;55953;51.650;-0.522;2022-07-18T08:38:04;27.45;43.28
68912;SHT31;55953;51.650;-0.522;2022-07-18T08:40:32;27.78;42.57
68912;SHT31;55953;51.650;-0.522;2022-07-18T08:43:02;27.98;41.47
68912;SHT31;55953;51.650;-0.522;2022-07-18T08:45:49;28.23;40.83
68912;SHT31;55953;51.650;-0.522;2022-07-18T08:48:23;28.41;40.61
68912;SHT31;55953;51.650;-0.522;2022-07-18T08:50:51;28.53;40.17
68912;SHT31;55953;51.650;-0.522;2022-07-18T08:53:20;28.63;40.15
68912;SHT31;55953;51.650;-0.522;2022-07-18T08:55:48;28.76;40.19
68912;SHT31;55953;51.650;-0.522;2022-07-18T08:58:16;28.78;39.25
68912;SHT31;55953;51.650;-0.522;2022-07-18T09:01:05;28.72;39.08
68912;SHT31;55953;51.650;-0.522;2022-07-18T09:03:34;28.70;38.42
68912;SHT31;55953;51.650;-0.522;2022-07-18T09:06:06;28.69;38.11
68912;SHT31;55953;51.650;-0.522;2022-07-18T09:08:36;28.73;38.42
68912;SHT31;55953;51.650;-0.522;2022-07-18T09:11:10;28.73;38.00
68912;SHT31;55953;51.650;-0.522;2022-07-18T09:13:58;28.68;37.72
68912;SHT31;55953;51.650;-0.522;2022-07-18T09:16:26;28.68;37.77
68912;SHT31;55953;51.650;-0.522;2022-07-18T09:18:55;28.69;37.83
68912;SHT31;55953;51.650;-0.522;2022-07-18T09:21:23;28.73;37.69
68912;SHT31;55953;51.650;-0.522;2022-07-18T09:23:52;28.79;37.96
68912;SHT31;55953;51.650;-0.522;2022-07-18T09:29:08;28.97;38.18
68912;SHT31;55953;51.650;-0.522;2022-07-18T09:31:53;29.05;37.24
68912;SHT31;55953;51.650;-0.522;2022-07-18T09:34:36;29.11;37.54
68912;SHT31;55953;51.650;-0.522;2022-07-18T09:37:10;29.14;36.83
68912;SHT31;55953;51.650;-0.522;2022-07-18T09:39:39;29.15;36.93
68912;SHT31;55953;51.650;-0.522;2022-07-18T09:42:16;29.15;37.14
68912;SHT31;55953;51.650;-0.522;2022-07-18T09:44:56;29.20;36.50
68912;SHT31;55953;51.650;-0.522;2022-07-18T09:47:26;29.25;36.14
68912;SHT31;55953;51.650;-0.522;2022-07-18T09:49:54;29.31;36.49
68912;SHT31;55953;51.650;-0.522;2022-07-18T09:52:22;29.42;36.59
68912;SHT31;55953;51.650;-0.522;2022-07-18T09:54:50;29.49;36.01
68912;SHT31;55953;51.650;-0.522;2022-07-18T09:57:31;29.54;35.90
68912;SHT31;55953;51.650;-0.522;2022-07-18T09:59:59;29.64;35.66
68912;SHT31;55953;51.650;-0.522;2022-07-18T10:02:27;29.74;35.19
68912;SHT31;55953;51.650;-0.522;2022-07-18T10:04:56;29.85;34.96
68912;SHT31;55953;51.650;-0.522;2022-07-18T10:07:24;29.92;35.08
68912;SHT31;55953;51.650;-0.522;2022-07-18T10:09:52;30.02;34.81
68912;SHT31;55953;51.650;-0.522;2022-07-18T10:12:20;30.12;35.07
68912;SHT31;55953;51.650;-0.522;2022-07-18T10:14:47;30.24;34.63
68912;SHT31;55953;51.650;-0.522;2022-07-18T10:17:16;30.38;34.77
68912;SHT31;55953;51.650;-0.522;2022-07-18T10:19:45;30.49;34.46
68912;SHT31;55953;51.650;-0.522;2022-07-18T10:22:13;30.58;34.31
68912;SHT31;55953;51.650;-0.522;2022-07-18T10:24:41;30.60;33.99
68912;SHT31;55953;51.650;-0.522;2022-07-18T10:32:40;30.73;34.08
68912;SHT31;55953;51.650;-0.522;2022-07-18T10:35:09;30.85;34.14
68912;SHT31;55953;51.650;-0.522;2022-07-18T10:37:40;30.95;33.87
68912;SHT31;55953;51.650;-0.522;2022-07-18T10:40:28;31.10;33.21
68912;SHT31;55953;51.650;-0.522;2022-07-18T10:46:00;31.30;33.29
68912;SHT31;55953;51.650;-0.522;2022-07-18T10:51:13;31.40;33.17
68912;SHT31;55953;51.650;-0.522;2022-07-18T10:53:56;31.52;33.33
68912;SHT31;55953;51.650;-0.522;2022-07-18T10:57:03;31.66;33.27
68912;SHT31;55953;51.650;-0.522;2022-07-18T10:59:22;31.78;33.36
68912;SHT31;55953;51.650;-0.522;2022-07-18T11:01:53;31.79;32.96
68912;SHT31;55953;51.650;-0.522;2022-07-18T11:04:28;31.85;33.36
68912;SHT31;55953;51.650;-0.522;2022-07-18T11:07:14;31.98;32.96
68912;SHT31;55953;51.650;-0.522;2022-07-18T11:09:44;32.09;32.73
68912;SHT31;55953;51.650;-0.522;2022-07-18T11:12:24;32.18;32.51
68912;SHT31;55953;51.650;-0.522;2022-07-18T11:15:04;32.32;32.95
68912;SHT31;55953;51.650;-0.522;2022-07-18T11:23:04;32.59;31.26
68912;SHT31;55953;51.650;-0.522;2022-07-18T11:26:01;32.67;31.82
68912;SHT31;55953;51.650;-0.522;2022-07-18T11:28:29;32.81;31.71
68912;SHT31;55953;51.650;-0.522;2022-07-18T11:31:03;32.93;31.57
68912;SHT31;55953;51.650;-0.522;2022-07-18T11:33:40;33.02;30.92
68912;SHT31;55953;51.650;-0.522;2022-07-18T11:36:14;33.05;30.74
68912;SHT31;55953;51.650;-0.522;2022-07-18T11:38:52;33.09;30.64
68912;SHT31;55953;51.650;-0.522;2022-07-18T11:41:28;33.18;31.12
68912;SHT31;55953;51.650;-0.522;2022-07-18T11:44:01;33.34;31.31
68912;SHT31;55953;51.650;-0.522;2022-07-18T11:46:29;33.51;30.65
68912;SHT31;55953;51.650;-0.522;2022-07-18T11:49:01;33.66;30.12
68912;SHT31;55953;51.650;-0.522;2022-07-18T11:51:34;33.78;29.76
68912;SHT31;55953;51.650;-0.522;2022-07-18T11:54:04;33.89;29.79
68912;SHT31;55953;51.650;-0.522;2022-07-18T11:56:34;34.04;30.27
68912;SHT31;55953;51.650;-0.522;2022-07-18T11:59:15;34.25;30.24
68912;SHT31;55953;51.650;-0.522;2022-07-18T12:01:43;34.44;29.95
68912;SHT31;55953;51.650;-0.522;2022-07-18T12:04:18;34.56;29.12
68912;SHT31;55953;51.650;-0.522;2022-07-18T12:09:53;34.94;28.71
68912;SHT31;55953;51.650;-0.522;2022-07-18T12:12:21;35.02;28.13
68912;SHT31;55953;51.650;-0.522;2022-07-18T12:17:26;35.29;27.67
68912;SHT31;55953;51.650;-0.522;2022-07-18T12:23:04;35.56;27.71
68912;SHT31;55953;51.650;-0.522;2022-07-18T12:25:41;35.68;27.33
68912;SHT31;55953;51.650;-0.522;2022-07-18T12:28:15;35.65;27.22
68912;SHT31;55953;51.650;-0.522;2022-07-18T12:30:45;35.73;27.00
68912;SHT31;55953;51.650;-0.522;2022-07-18T12:33:14;35.91;27.18
68912;SHT31;55953;51.650;-0.522;2022-07-18T12:35:42;36.01;27.54
68912;SHT31;55953;51.650;-0.522;2022-07-18T12:38:14;36.08;27.70
68912;SHT31;55953;51.650;-0.522;2022-07-18T12:45:53;36.30;27.03
68912;SHT31;55953;51.650;-0.522;2022-07-18T12:48:23;36.42;27.32
68912;SHT31;55953;51.650;-0.522;2022-07-18T12:50:56;36.54;27.19
68912;SHT31;55953;51.650;-0.522;2022-07-18T12:53:28;36.57;27.11
68912;SHT31;55953;51.650;-0.522;2022-07-18T12:55:59;36.61;26.39
68912;SHT31;55953;51.650;-0.522;2022-07-18T12:58:27;36.67;26.33
68912;SHT31;55953;51.650;-0.522;2022-07-18T13:00:55;36.72;26.63
68912;SHT31;55953;51.650;-0.522;2022-07-18T13:03:32;36.75;26.18
68912;SHT31;55953;51.650;-0.522;2022-07-18T13:06:01;36.85;27.00
68912;SHT31;55953;51.650;-0.522;2022-07-18T13:08:29;36.90;26.92
68912;SHT31;55953;51.650;-0.522;2022-07-18T13:11:00;36.93;26.65
68912;SHT31;55953;51.650;-0.522;2022-07-18T13:13:28;37.00;25.84
68912;SHT31;55953;51.650;-0.522;2022-07-18T13:15:56;37.03;25.62
68912;SHT31;55953;51.650;-0.522;2022-07-18T13:18:24;37.00;25.87
68912;SHT31;55953;51.650;-0.522;2022-07-18T13:20:52;36.96;26.27
68912;SHT31;55953;51.650;-0.522;2022-07-18T13:23:20;36.95;25.81
68912;SHT31;55953;51.650;-0.522;2022-07-18T13:25:47;37.01;25.40
68912;SHT31;55953;51.650;-0.522;2022-07-18T13:28:15;37.12;25.24
68912;SHT31;55953;51.650;-0.522;2022-07-18T13:30:43;37.18;25.62
68912;SHT31;55953;51.650;-0.522;2022-07-18T13:33:11;37.10;25.96
68912;SHT31;55953;51.650;-0.522;2022-07-18T13:35:39;36.96;26.15
68912;SHT31;55953;51.650;-0.522;2022-07-18T13:38:07;36.90;26.22
68912;SHT31;55953;51.650;-0.522;2022-07-18T13:40:35;36.67;25.93
68912;SHT31;55953;51.650;-0.522;2022-07-18T13:43:03;36.45;26.16
68912;SHT31;55953;51.650;-0.522;2022-07-18T13:45:30;36.36;26.74
68912;SHT31;55953;51.650;-0.522;2022-07-18T13:47:58;36.40;26.58
68912;SHT31;55953;51.650;-0.522;2022-07-18T13:50:26;36.50;26.77
68912;SHT31;55953;51.650;-0.522;2022-07-18T13:52:54;36.65;26.70
68912;SHT31;55953;51.650;-0.522;2022-07-18T13:55:22;36.82;26.66
68912;SHT31;55953;51.650;-0.522;2022-07-18T13:57:50;36.91;26.50
68912;SHT31;55953;51.650;-0.522;2022-07-18T14:00:18;37.00;26.44
68912;SHT31;55953;51.650;-0.522;2022-07-18T14:02:46;37.09;26.28
68912;SHT31;55953;51.650;-0.522;2022-07-18T14:05:15;37.17;25.83
68912;SHT31;55953;51.650;-0.522;2022-07-18T14:07:43;37.21;25.56
68912;SHT31;55953;51.650;-0.522;2022-07-18T14:10:13;37.31;25.71
68912;SHT31;55953;51.650;-0.522;2022-07-18T14:12:42;37.33;25.24
68912;SHT31;55953;51.650;-0.522;2022-07-18T14:15:11;37.32;25.27
68912;SHT31;55953;51.650;-0.522;2022-07-18T14:17:39;37.29;25.73
68912;SHT31;55953;51.650;-0.522;2022-07-18T14:20:09;37.31;25.43
68912;SHT31;55953;51.650;-0.522;2022-07-18T14:22:39;37.33;25.21
68912;SHT31;55953;51.650;-0.522;2022-07-18T14:25:08;37.29;24.89
68912;SHT31;55953;51.650;-0.522;2022-07-18T14:27:40;37.28;24.86
68912;SHT31;55953;51.650;-0.522;2022-07-18T14:30:10;37.27;24.43
68912;SHT31;55953;51.650;-0.522;2022-07-18T14:32:41;37.20;24.30
68912;SHT31;55953;51.650;-0.522;2022-07-18T14:35:09;37.21;24.82
68912;SHT31;55953;51.650;-0.522;2022-07-18T14:37:38;37.19;24.65
68912;SHT31;55953;51.650;-0.522;2022-07-18T14:40:06;37.16;24.51
68912;SHT31;55953;51.650;-0.522;2022-07-18T14:42:35;37.07;24.49
68912;SHT31;55953;51.650;-0.522;2022-07-18T14:45:03;36.99;25.01
68912;SHT31;55953;51.650;-0.522;2022-07-18T14:47:32;36.99;25.01
68912;SHT31;55953;51.650;-0.522;2022-07-18T14:50:04;37.01;24.95
68912;SHT31;55953;51.650;-0.522;2022-07-18T14:52:34;37.02;25.08
68912;SHT31;55953;51.650;-0.522;2022-07-18T14:55:02;37.04;25.05
68912;SHT31;55953;51.650;-0.522;2022-07-18T14:57:31;37.03;24.80
68912;SHT31;55953;51.650;-0.522;2022-07-18T15:00:01;37.02;24.75
68912;SHT31;55953;51.650;-0.522;2022-07-18T15:02:32;37.01;24.60
68912;SHT31;55953;51.650;-0.522;2022-07-18T15:05:00;36.98;24.32
68912;SHT31;55953;51.650;-0.522;2022-07-18T15:07:30;36.92;24.36
68912;SHT31;55953;51.650;-0.522;2022-07-18T15:09:58;36.95;24.27
68912;SHT31;55953;51.650;-0.522;2022-07-18T15:12:26;36.98;24.03
68912;SHT31;55953;51.650;-0.522;2022-07-18T15:14:55;36.96;24.04
68912;SHT31;55953;51.650;-0.522;2022-07-18T15:17:24;37.02;23.95
68912;SHT31;55953;51.650;-0.522;2022-07-18T15:19:52;37.09;23.88
68912;SHT31;55953;51.650;-0.522;2022-07-18T15:22:20;37.10;23.70
68912;SHT31;55953;51.650;-0.522;2022-07-18T15:24:48;37.11;23.78
68912;SHT31;55953;51.650;-0.522;2022-07-18T15:27:17;37.12;23.84
68912;SHT31;55953;51.650;-0.522;2022-07-18T15:29:44;37.15;23.93
68912;SHT31;55953;51.650;-0.522;2022-07-18T15:32:12;37.11;23.61
68912;SHT31;55953;51.650;-0.522;2022-07-18T15:34:40;37.07;23.42
68912;SHT31;55953;51.650;-0.522;2022-07-18T15:37:08;37.03;23.82
68912;SHT31;55953;51.650;-0.522;2022-07-18T15:39:36;37.10;23.68
68912;SHT31;55953;51.650;-0.522;2022-07-18T15:42:04;37.15;23.77
68912;SHT31;55953;51.650;-0.522;2022-07-18T15:44:31;37.11;23.26
68912;SHT31;55953;51.650;-0.522;2022-07-18T15:47:05;37.01;23.32
68912;SHT31;55953;51.650;-0.522;2022-07-18T15:49:35;36.96;23.43
68912;SHT31;55953;51.650;-0.522;2022-07-18T15:52:04;36.89;23.17
68912;SHT31;55953;51.650;-0.522;2022-07-18T15:54:34;36.78;23.30
68912;SHT31;55953;51.650;-0.522;2022-07-18T15:57:03;36.74;23.68
68912;SHT31;55953;51.650;-0.522;2022-07-18T15:59:32;36.63;23.11
68912;SHT31;55953;51.650;-0.522;2022-07-18T16:02:01;36.58;23.35
68912;SHT31;55953;51.650;-0.522;2022-07-18T16:04:28;36.68;23.73
68912;SHT31;55953;51.650;-0.522;2022-07-18T16:06:56;36.74;23.98
68912;SHT31;55953;51.650;-0.522;2022-07-18T16:09:24;36.76;23.79
68912;SHT31;55953;51.650;-0.522;2022-07-18T16:11:52;36.75;23.94
68912;SHT31;55953;51.650;-0.522;2022-07-18T16:14:20;36.75;23.43
68912;SHT31;55953;51.650;-0.522;2022-07-18T16:16:48;36.78;23.15
68912;SHT31;55953;51.650;-0.522;2022-07-18T16:19:16;36.78;22.59
68912;SHT31;55953;51.650;-0.522;2022-07-18T16:21:43;36.72;22.11
68912;SHT31;55953;51.650;-0.522;2022-07-18T16:24:11;36.67;22.45
68912;SHT31;55953;51.650;-0.522;2022-07-18T16:26:39;36.67;22.47
68912;SHT31;55953;51.650;-0.522;2022-07-18T16:29:07;36.66;22.70
68912;SHT31;55953;51.650;-0.522;2022-07-18T16:31:35;36.65;22.52
68912;SHT31;55953;51.650;-0.522;2022-07-18T16:34:04;36.65;22.21
68912;SHT31;55953;51.650;-0.522;2022-07-18T16:36:31;36.65;22.14
68912;SHT31;55953;51.650;-0.522;2022-07-18T16:38:59;36.60;22.18
68912;SHT31;55953;51.650;-0.522;2022-07-18T16:41:28;36.49;21.75
68912;SHT31;55953;51.650;-0.522;2022-07-18T16:43:58;36.44;21.61
68912;SHT31;55953;51.650;-0.522;2022-07-18T16:46:27;36.43;21.39